createdAt,value
2022-12-06T00:00:29.192Z,5.53
2022-12-06T00:02:55.067Z,5.10
2022-12-06T00:05:20.923Z,5.07
2022-12-06T00:07:46.800Z,5.43
2022-12-06T00:10:12.582Z,6.15
2022-12-06T00:12:38.342Z,5.53
2022-12-06T00:15:04.389Z,4.97
2022-12-06T00:17:30.118Z,4.70
2022-12-06T00:19:55.871Z,5.13
2022-12-06T00:22:21.835Z,5.03
2022-12-06T00:24:47.648Z,5.25
2022-12-06T00:27:13.447Z,4.85
2022-12-06T00:29:39.321Z,5.43
2022-12-06T00:32:05.245Z,5.00
2022-12-06T00:34:31.106Z,5.18
2022-12-06T00:36:56.957Z,5.43
2022-12-06T00:39:22.774Z,5.95
2022-12-06T00:41:48.569Z,5.35
2022-12-06T00:44:14.538Z,5.97
2022-12-06T00:46:40.560Z,5.47
2022-12-06T00:49:08.327Z,5.32
2022-12-06T00:51:35.108Z,5.05
2022-12-06T00:54:01.733Z,5.13
2022-12-06T00:56:27.869Z,5.03
2022-12-06T00:58:54.083Z,4.22
2022-12-06T01:01:22.819Z,4.70
2022-12-06T01:03:53.241Z,4.85
2022-12-06T01:06:22.374Z,4.15
2022-12-06T01:08:48.267Z,4.70
2022-12-06T01:11:15.661Z,4.57
2022-12-06T01:13:42.566Z,4.63
2022-12-06T01:16:17.501Z,4.80
2022-12-06T01:18:44.813Z,5.10
2022-12-06T01:21:14.108Z,5.07
2022-12-06T01:23:40.319Z,4.55
2022-12-06T01:26:07.050Z,5.50
2022-12-06T01:28:33.138Z,5.10
2022-12-06T01:30:59.546Z,5.93
2022-12-06T01:33:25.773Z,5.57
2022-12-06T01:35:51.577Z,5.75
2022-12-06T01:38:17.483Z,6.00
2022-12-06T01:40:46.195Z,5.68
2022-12-06T01:43:50.811Z,5.50
2022-12-06T01:46:44.138Z,6.20
2022-12-06T01:49:12.817Z,6.20
2022-12-06T01:52:01.102Z,5.90
2022-12-06T01:54:27.043Z,6.15
2022-12-06T01:56:56.218Z,6.03
2022-12-06T01:59:23.697Z,6.75
2022-12-06T02:01:49.987Z,6.78
2022-12-06T02:04:17.150Z,9.25
2022-12-06T02:06:43.443Z,6.47
2022-12-06T02:09:10.685Z,7.85
2022-12-06T02:11:37.428Z,7.40
2022-12-06T02:14:08.409Z,8.70
2022-12-06T02:16:37.385Z,7.82
2022-12-06T02:19:26.868Z,7.13
2022-12-06T02:22:09.202Z,7.22
2022-12-06T02:24:42.584Z,7.18
2022-12-06T02:27:57.189Z,7.28
2022-12-06T02:30:35.552Z,6.25
2022-12-06T02:33:14.979Z,6.80
2022-12-06T02:35:50.314Z,6.68
2022-12-06T02:38:25.129Z,6.50
2022-12-06T02:40:58.550Z,6.53
2022-12-06T02:43:35.225Z,7.38
2022-12-06T02:46:03.926Z,6.50
2022-12-06T02:48:32.298Z,7.28
2022-12-06T02:51:10.030Z,7.38
2022-12-06T02:53:41.212Z,7.20
2022-12-06T02:56:07.521Z,7.10
2022-12-06T02:58:36.524Z,6.82
2022-12-06T03:01:05.705Z,7.00
2022-12-06T03:04:01.241Z,6.13
2022-12-06T03:07:00.967Z,6.53
2022-12-06T03:09:57.582Z,5.80
2022-12-06T03:12:26.543Z,6.22
2022-12-06T03:15:07.858Z,6.35
2022-12-06T03:17:59.798Z,6.28
2022-12-06T03:20:33.257Z,5.18
2022-12-06T03:23:06.374Z,5.68
2022-12-06T03:25:35.232Z,6.32
2022-12-06T03:28:05.638Z,5.38
2022-12-06T03:30:33.878Z,5.68
2022-12-06T03:33:01.117Z,5.70
2022-12-06T03:35:31.923Z,5.10
2022-12-06T03:38:10.439Z,5.68
2022-12-06T03:40:39.601Z,6.68
2022-12-06T03:43:06.028Z,6.30
2022-12-06T03:45:42.327Z,5.75
2022-12-06T03:48:20.838Z,5.57
2022-12-06T03:50:58.370Z,6.22
2022-12-06T03:53:24.613Z,6.03
2022-12-06T03:55:50.359Z,6.45
2022-12-06T03:58:16.222Z,6.70
2022-12-06T04:00:42.025Z,5.93
2022-12-06T04:03:07.823Z,6.07
2022-12-06T04:05:33.619Z,6.43
2022-12-06T04:07:59.415Z,7.50
2022-12-06T04:10:25.273Z,6.55
2022-12-06T04:13:05.126Z,6.78
2022-12-06T04:15:35.434Z,7.60
2022-12-06T04:18:12.669Z,6.43
2022-12-06T04:21:02.812Z,7.03
2022-12-06T04:23:29.904Z,7.30
2022-12-06T04:25:56.043Z,6.15
2022-12-06T04:28:40.523Z,6.43
2022-12-06T04:31:24.923Z,6.45
2022-12-06T04:34:09.791Z,6.72
2022-12-06T04:36:56.030Z,6.05
2022-12-06T04:39:21.855Z,6.18
2022-12-06T04:42:06.926Z,6.00
2022-12-06T04:44:32.843Z,6.23
2022-12-06T04:46:59.334Z,5.32
2022-12-06T04:49:25.789Z,5.55
2022-12-06T04:51:52.584Z,5.53
2022-12-06T04:54:18.915Z,6.15
2022-12-06T04:56:44.698Z,5.65
2022-12-06T04:59:10.522Z,4.82
2022-12-06T05:01:36.381Z,6.55
2022-12-06T05:04:02.575Z,4.75
2022-12-06T05:06:28.508Z,5.10
2022-12-06T05:08:54.328Z,5.60
2022-12-06T05:11:20.130Z,5.88
2022-12-06T05:13:46.173Z,6.25
2022-12-06T05:16:12.259Z,6.35
2022-12-06T05:18:38.410Z,6.85
2022-12-06T05:21:07.380Z,7.63
2022-12-06T05:23:34.402Z,6.22
2022-12-06T05:26:04.855Z,5.60
2022-12-06T05:28:32.056Z,4.78
2022-12-06T05:30:57.951Z,5.60
2022-12-06T05:33:24.908Z,5.00
2022-12-06T05:35:51.254Z,5.13
2022-12-06T05:38:17.726Z,5.70
2022-12-06T05:40:45.876Z,6.07
2022-12-06T05:43:12.526Z,5.38
2022-12-06T05:45:38.893Z,5.75
2022-12-06T05:48:06.066Z,6.05
2022-12-06T05:50:32.204Z,6.35
2022-12-06T05:52:59.723Z,6.60
2022-12-06T05:55:26.827Z,7.65
2022-12-06T05:57:52.646Z,9.13
2022-12-06T06:00:19.352Z,9.48
2022-12-06T06:02:46.174Z,7.95
2022-12-06T06:05:12.779Z,7.97
2022-12-06T06:07:38.641Z,7.60
2022-12-06T06:10:05.393Z,8.05
2022-12-06T06:12:31.376Z,8.48
2022-12-06T06:14:57.233Z,7.68
2022-12-06T06:17:23.593Z,7.72
2022-12-06T06:19:51.570Z,7.07
2022-12-06T06:22:19.207Z,7.18
2022-12-06T06:24:45.087Z,7.85
2022-12-06T06:27:10.966Z,7.20
2022-12-06T06:29:40.682Z,7.13
2022-12-06T06:32:09.542Z,7.95
2022-12-06T06:34:35.411Z,7.43
2022-12-06T06:37:01.212Z,6.90
2022-12-06T06:39:27.132Z,7.20
2022-12-06T06:41:52.901Z,7.18
2022-12-06T06:44:18.655Z,10.07
2022-12-06T06:46:44.525Z,8.77
2022-12-06T06:49:10.948Z,9.57
2022-12-06T06:51:36.765Z,7.43
2022-12-06T06:54:02.995Z,7.38
2022-12-06T06:56:28.908Z,7.20
2022-12-06T06:58:54.642Z,7.40
2022-12-06T07:01:22.641Z,6.43
2022-12-06T07:03:48.948Z,7.03
2022-12-06T07:06:14.822Z,7.47
2022-12-06T07:08:41.137Z,6.60
2022-12-06T07:11:08.833Z,5.95
2022-12-06T07:13:36.113Z,5.80
2022-12-06T07:16:07.117Z,6.07
2022-12-06T07:18:33.798Z,7.25
2022-12-06T07:21:03.226Z,7.32
2022-12-06T07:23:29.954Z,7.85
2022-12-06T07:26:03.005Z,8.38
2022-12-06T07:28:29.051Z,7.90
2022-12-06T07:30:55.213Z,8.85
2022-12-06T07:33:21.087Z,9.75
2022-12-06T07:38:41.985Z,9.98
2022-12-06T07:41:29.886Z,9.43
2022-12-06T07:44:15.824Z,10.57
2022-12-06T07:46:42.361Z,10.10
2022-12-06T07:49:09.158Z,11.18
2022-12-06T07:51:35.017Z,10.73
2022-12-06T07:54:01.408Z,10.20
2022-12-06T07:56:27.527Z,10.10
2022-12-06T07:58:53.426Z,10.52
2022-12-06T08:01:20.391Z,9.85
2022-12-06T08:03:46.208Z,10.38
2022-12-06T08:06:11.982Z,9.15
2022-12-06T08:08:37.892Z,9.75
2022-12-06T08:11:06.559Z,9.90
2022-12-06T08:13:34.637Z,10.07
2022-12-06T08:16:04.598Z,10.55
2022-12-06T08:18:30.561Z,10.85
2022-12-06T08:20:58.141Z,10.82
2022-12-06T08:23:27.950Z,10.82
2022-12-06T08:25:59.016Z,11.90
2022-12-06T08:28:25.738Z,10.25
2022-12-06T08:30:51.910Z,9.75
2022-12-06T08:33:17.776Z,10.30
2022-12-06T08:35:43.648Z,9.40
2022-12-06T08:38:09.448Z,9.02
2022-12-06T08:40:35.316Z,9.20
2022-12-06T08:43:01.252Z,10.10
2022-12-06T08:45:27.087Z,9.40
2022-12-06T08:47:52.890Z,9.40
2022-12-06T08:50:18.652Z,9.05
2022-12-06T08:52:44.726Z,8.20
2022-12-06T08:55:10.605Z,7.38
2022-12-06T08:57:36.825Z,7.60
2022-12-06T09:00:06.971Z,7.50
2022-12-06T09:02:32.728Z,7.32
2022-12-06T09:04:58.611Z,7.43
2022-12-06T09:07:25.727Z,8.35
2022-12-06T09:09:54.787Z,8.60
2022-12-06T09:12:20.606Z,8.68
2022-12-06T09:14:46.452Z,9.93
2022-12-06T09:17:12.872Z,9.82
2022-12-06T09:19:38.762Z,10.00
2022-12-06T09:22:04.649Z,10.50
2022-12-06T09:24:30.498Z,9.65
2022-12-06T09:26:56.282Z,9.48
2022-12-06T09:29:22.283Z,9.25
2022-12-06T09:31:48.178Z,8.73
2022-12-06T09:34:14.722Z,7.75
2022-12-06T09:36:52.517Z,8.80
2022-12-06T09:39:26.682Z,9.02
2022-12-06T09:41:58.597Z,9.43
2022-12-06T09:44:55.022Z,9.13
2022-12-06T09:50:04.760Z,9.50
2022-12-06T09:52:49.020Z,9.77
2022-12-06T09:55:19.400Z,9.80
2022-12-06T09:58:26.524Z,8.52
2022-12-06T10:01:05.015Z,7.43
2022-12-06T10:03:50.947Z,8.38
2022-12-06T10:06:21.333Z,8.00
2022-12-06T10:08:52.853Z,9.50
2022-12-06T10:11:47.736Z,8.75
2022-12-06T10:14:28.670Z,9.90
2022-12-06T10:17:10.390Z,10.02
2022-12-06T10:20:07.180Z,10.00
2022-12-06T10:22:38.896Z,9.88
2022-12-06T10:25:19.845Z,11.88
2022-12-06T10:28:00.041Z,11.68
2022-12-06T10:30:26.111Z,12.35
2022-12-06T10:33:03.089Z,11.73
2022-12-06T10:35:46.820Z,13.63
2022-12-06T10:38:26.637Z,15.20
2022-12-06T10:41:12.364Z,13.20
2022-12-06T10:43:46.659Z,12.60
2022-12-06T10:46:49.979Z,12.52
2022-12-06T10:49:27.122Z,12.95
2022-12-06T10:52:07.549Z,12.27
2022-12-06T10:54:52.821Z,12.65
2022-12-06T10:57:30.208Z,12.18
2022-12-06T11:00:15.897Z,12.60
2022-12-06T11:03:06.136Z,13.07
2022-12-06T11:05:31.962Z,14.00
2022-12-06T11:08:06.315Z,13.00
2022-12-06T11:10:33.982Z,11.70
2022-12-06T11:13:15.017Z,13.32
2022-12-06T11:15:49.980Z,12.02
2022-12-06T11:18:17.210Z,12.63
2022-12-06T11:20:49.297Z,13.73
2022-12-06T11:23:35.843Z,14.35
2022-12-06T11:26:20.079Z,13.15
2022-12-06T11:29:03.500Z,12.93
2022-12-06T11:31:35.858Z,13.98
2022-12-06T11:34:04.105Z,14.18
2022-12-06T11:36:31.010Z,13.10
2022-12-06T11:38:58.823Z,12.38
2022-12-06T11:41:29.132Z,12.57
2022-12-06T11:43:57.069Z,11.73
2022-12-06T11:46:23.902Z,11.35
2022-12-06T11:48:50.285Z,14.65
2022-12-06T11:51:24.480Z,13.02
2022-12-06T11:54:18.128Z,12.15
2022-12-06T11:56:44.769Z,12.45
2022-12-06T11:59:28.589Z,13.25
2022-12-06T12:02:02.943Z,13.23
2022-12-06T12:04:42.647Z,16.80
2022-12-06T12:07:08.402Z,13.23
2022-12-06T12:09:55.204Z,14.35
2022-12-06T12:12:44.857Z,13.20
2022-12-06T12:15:17.021Z,12.35
2022-12-06T12:17:46.508Z,15.07
2022-12-06T12:20:25.170Z,14.88
2022-12-06T12:23:16.119Z,15.43
2022-12-06T12:25:43.120Z,25.25
2022-12-06T12:28:24.849Z,15.85
2022-12-06T12:30:59.569Z,16.05
2022-12-06T12:33:29.290Z,15.73
2022-12-06T12:36:04.226Z,15.65
2022-12-06T12:38:36.072Z,16.75
2022-12-06T12:41:21.451Z,14.75
2022-12-06T12:44:13.828Z,15.43
2022-12-06T12:46:45.015Z,14.35
2022-12-06T12:49:25.384Z,17.00
2022-12-06T12:51:51.591Z,15.70
2022-12-06T12:54:26.345Z,16.55
2022-12-06T12:56:53.555Z,13.80
2022-12-06T12:59:23.088Z,15.65
2022-12-06T13:01:57.364Z,14.38
2022-12-06T13:04:40.809Z,12.75
2022-12-06T13:07:09.331Z,12.52
2022-12-06T13:09:47.660Z,12.45
2022-12-06T13:12:35.333Z,14.32
2022-12-06T13:15:11.434Z,15.23
2022-12-06T13:17:41.023Z,15.15
2022-12-06T13:20:28.088Z,13.85
2022-12-06T13:22:59.704Z,13.48
2022-12-06T13:25:25.502Z,14.60
2022-12-06T13:27:55.168Z,16.40
2022-12-06T13:30:28.026Z,14.23
2022-12-06T13:33:01.946Z,20.73
2022-12-06T13:35:31.626Z,13.30
2022-12-06T13:38:26.325Z,19.77
2022-12-06T13:40:58.094Z,15.48
2022-12-06T13:43:23.871Z,16.35
2022-12-06T13:46:14.326Z,17.65
2022-12-06T13:49:25.049Z,16.75
2022-12-06T13:51:51.254Z,19.33
2022-12-06T13:54:16.910Z,18.40
2022-12-06T13:56:42.816Z,18.17
2022-12-06T13:59:11.490Z,18.60
2022-12-06T14:01:42.281Z,18.42
2022-12-06T14:04:23.363Z,18.13
2022-12-06T14:06:51.480Z,19.35
2022-12-06T14:09:17.995Z,18.63
2022-12-06T14:11:44.619Z,20.15
2022-12-06T14:14:22.156Z,20.08
2022-12-06T14:16:54.092Z,19.55
2022-12-06T14:19:39.219Z,21.25
2022-12-06T14:22:32.650Z,15.60
2022-12-06T14:25:19.533Z,20.27
2022-12-06T14:27:48.458Z,20.08
2022-12-06T14:30:25.669Z,18.70
2022-12-06T14:32:55.455Z,18.60
2022-12-06T14:35:24.944Z,20.20
2022-12-06T14:37:58.149Z,18.58
2022-12-06T14:40:46.010Z,16.92
2022-12-06T14:43:17.228Z,17.02
2022-12-06T14:45:44.421Z,16.80
2022-12-06T14:48:12.359Z,18.25
2022-12-06T14:50:56.156Z,16.27
2022-12-06T14:53:36.903Z,17.33
2022-12-06T14:56:06.824Z,16.65
2022-12-06T14:58:35.856Z,17.25
2022-12-06T15:01:05.254Z,17.70
2022-12-06T15:03:36.412Z,16.50
2022-12-06T15:06:23.159Z,15.63
2022-12-06T15:08:58.114Z,15.02
2022-12-06T15:12:08.141Z,15.55
2022-12-06T15:14:34.452Z,15.50
2022-12-06T15:17:13.941Z,16.65
2022-12-06T15:19:48.220Z,17.17
2022-12-06T15:22:24.634Z,18.00
2022-12-06T15:24:53.900Z,17.42
2022-12-06T15:27:21.077Z,16.13
2022-12-06T15:29:47.342Z,15.25
2022-12-06T15:32:18.602Z,16.10
2022-12-06T15:34:45.221Z,15.07
2022-12-06T15:37:38.331Z,16.92
2022-12-06T15:39:59.225Z,17.05
2022-12-06T15:42:25.408Z,15.30
2022-12-06T15:44:51.241Z,18.08
2022-12-06T15:47:18.811Z,16.58
2022-12-06T15:49:44.780Z,17.75
2022-12-06T15:52:21.086Z,16.58
2022-12-06T15:54:46.903Z,17.23
2022-12-06T15:57:12.805Z,16.33
2022-12-06T15:59:38.617Z,17.40
2022-12-06T16:02:13.311Z,17.10
2022-12-06T16:04:39.670Z,17.93
2022-12-06T16:07:05.527Z,19.77
2022-12-06T16:09:31.380Z,18.58
2022-12-06T16:11:57.153Z,16.80
2022-12-06T16:14:22.996Z,16.48
2022-12-06T16:16:48.836Z,19.17
2022-12-06T16:19:14.674Z,19.17
2022-12-06T16:21:56.839Z,19.10
2022-12-06T16:24:23.329Z,18.45
2022-12-06T16:26:49.157Z,18.58
2022-12-06T16:29:22.376Z,19.63
2022-12-06T16:31:48.918Z,20.10
2022-12-06T16:34:14.921Z,19.17
2022-12-06T16:37:05.695Z,17.73
2022-12-06T16:39:33.326Z,18.17
2022-12-06T16:41:59.679Z,19.17
2022-12-06T16:44:25.772Z,20.92
2022-12-06T16:46:52.012Z,22.13
2022-12-06T16:52:12.189Z,23.08
2022-12-06T16:54:40.293Z,23.65
2022-12-06T16:57:06.069Z,22.92
2022-12-06T16:59:31.922Z,24.25
2022-12-06T17:01:58.706Z,21.80
2022-12-06T17:04:25.317Z,23.00
2022-12-06T17:06:51.554Z,24.00
2022-12-06T17:09:17.352Z,23.50
2022-12-06T17:12:02.053Z,24.92
2022-12-06T17:14:28.700Z,24.08
